sensor_id;sensor_type;location;lat;lon;timestamp;pressure;altitude;pressure_sealevel;temperature;humidity
67038;BME280;53940;53.204;6.590;2024-01-06T00:00:01;100266.94;;;21.60;36.90
67038;BME280;53940;53.204;6.590;2024-01-06T00:03:02;100267.75;;;21.61;36.77
67038;BME280;53940;53.204;6.590;2024-01-06T00:06:02;100279.31;;;21.61;36.78
67038;BME280;53940;53.204;6.590;2024-01-06T00:09:03;100279.31;;;21.61;36.90
67038;BME280;53940;53.204;6.590;2024-01-06T00:12:03;100286.38;;;21.62;36.56
67038;BME280;53940;53.204;6.590;2024-01-06T00:15:04;100292.59;;;21.63;36.84
67038;BME280;53940;53.204;6.590;2024-01-06T00:18:05;100296.78;;;21.65;36.78
67038;BME280;53940;53.204;6.590;2024-01-06T00:21:05;100299.28;;;21.67;36.76
67038;BME280;53940;53.204;6.590;2024-01-06T00:24:06;100300.13;;;21.67;36.66
67038;BME280;53940;53.204;6.590;2024-01-06T00:27:06;100301.81;;;21.68;36.72
67038;BME280;53940;53.204;6.590;2024-01-06T00:30:07;100301.81;;;21.68;36.59
67038;BME280;53940;53.204;6.590;2024-01-06T00:33:08;100310.59;;;21.71;36.31
67038;BME280;53940;53.204;6.590;2024-01-06T00:36:09;100313.09;;;21.72;36.62
67038;BME280;53940;53.204;6.590;2024-01-06T00:39:09;100318.31;;;21.74;36.34
67038;BME280;53940;53.204;6.590;2024-01-06T00:42:09;100326.34;;;21.74;36.44
67038;BME280;53940;53.204;6.590;2024-01-06T00:45:10;100315.47;;;21.75;36.37
67038;BME280;53940;53.204;6.590;2024-01-06T00:48:10;100335.06;;;21.76;36.35
67038;BME280;53940;53.204;6.590;2024-01-06T00:51:10;100334.09;;;21.77;36.19
67038;BME280;53940;53.204;6.590;2024-01-06T00:54:11;100339.28;;;21.78;36.31
67038;BME280;53940;53.204;6.590;2024-01-06T00:57:11;100349.19;;;21.78;36.41
67038;BME280;53940;53.204;6.590;2024-01-06T01:00:12;100352.53;;;21.80;36.04
67038;BME280;53940;53.204;6.590;2024-01-06T01:03:12;100363.25;;;21.80;36.27
67038;BME280;53940;53.204;6.590;2024-01-06T01:06:13;100361.25;;;21.82;36.13
67038;BME280;53940;53.204;6.590;2024-01-06T01:09:13;100378.19;;;21.83;36.24
67038;BME280;53940;53.204;6.590;2024-01-06T01:12:14;100379.06;;;21.83;36.15
67038;BME280;53940;53.204;6.590;2024-01-06T01:15:14;100390.59;;;21.84;36.08
67038;BME280;53940;53.204;6.590;2024-01-06T01:18:15;100384.41;;;21.83;36.02
67038;BME280;53940;53.204;6.590;2024-01-06T01:21:15;100393.13;;;21.85;35.91
67038;BME280;53940;53.204;6.590;2024-01-06T01:24:15;100391.47;;;21.84;35.83
67038;BME280;53940;53.204;6.590;2024-01-06T01:27:16;100391.28;;;21.86;35.96
67038;BME280;53940;53.204;6.590;2024-01-06T01:30:16;100400.19;;;21.86;35.80
67038;BME280;53940;53.204;6.590;2024-01-06T01:33:16;100401.03;;;21.87;35.95
67038;BME280;53940;53.204;6.590;2024-01-06T01:36:17;100407.22;;;21.87;36.03
67038;BME280;53940;53.204;6.590;2024-01-06T01:39:18;100408.22;;;21.86;35.69
67038;BME280;53940;53.204;6.590;2024-01-06T01:42:18;100406.22;;;21.88;35.68
67038;BME280;53940;53.204;6.590;2024-01-06T01:45:19;100399.19;;;21.87;35.87
67038;BME280;53940;53.204;6.590;2024-01-06T01:48:23;100401.84;;;21.87;35.66
67038;BME280;53940;53.204;6.590;2024-01-06T01:51:28;100399.88;;;21.89;35.59
67038;BME280;53940;53.204;6.590;2024-01-06T01:54:29;100404.38;;;21.89;35.79
67038;BME280;53940;53.204;6.590;2024-01-06T01:57:30;100409.75;;;21.89;35.66
67038;BME280;53940;53.204;6.590;2024-01-06T02:00:30;100405.25;;;21.89;35.58
67038;BME280;53940;53.204;6.590;2024-01-06T02:03:31;100414.28;;;21.88;35.48
67038;BME280;53940;53.204;6.590;2024-01-06T02:06:32;100415.97;;;21.89;35.82
67038;BME280;53940;53.204;6.590;2024-01-06T02:09:32;100422.31;;;21.88;35.78
67038;BME280;53940;53.204;6.590;2024-01-06T02:12:33;100428.53;;;21.89;35.79
67038;BME280;53940;53.204;6.590;2024-01-06T02:15:33;100427.69;;;21.88;35.66
67038;BME280;53940;53.204;6.590;2024-01-06T02:18:34;100434.06;;;21.87;35.55
67038;BME280;53940;53.204;6.590;2024-01-06T02:21:35;100440.13;;;21.89;35.63
67038;BME280;53940;53.204;6.590;2024-01-06T02:24:40;100442.81;;;21.89;35.49
67038;BME280;53940;53.204;6.590;2024-01-06T02:27:40;100441.94;;;21.89;35.54
67038;BME280;53940;53.204;6.590;2024-01-06T02:30:40;100444.78;;;21.87;35.35
67038;BME280;53940;53.204;6.590;2024-01-06T02:33:41;100444.78;;;21.87;35.37
67038;BME280;53940;53.204;6.590;2024-01-06T02:36:41;100445.78;;;21.86;35.67
67038;BME280;53940;53.204;6.590;2024-01-06T02:39:41;100450.16;;;21.87;35.44
67038;BME280;53940;53.204;6.590;2024-01-06T02:42:42;100449.13;;;21.88;35.72
67038;BME280;53940;53.204;6.590;2024-01-06T02:45:42;100455.50;;;21.87;35.72
67038;BME280;53940;53.204;6.590;2024-01-06T02:48:42;100462.56;;;21.88;35.43
67038;BME280;53940;53.204;6.590;2024-01-06T02:51:43;100473.28;;;21.88;35.54
67038;BME280;53940;53.204;6.590;2024-01-06T02:54:43;100458.19;;;21.87;35.38
67038;BME280;53940;53.204;6.590;2024-01-06T02:57:43;100474.28;;;21.87;35.34
67038;BME280;53940;53.204;6.590;2024-01-06T03:00:44;100474.28;;;21.87;35.27
67038;BME280;53940;53.204;6.590;2024-01-06T03:03:44;100478.66;;;21.88;35.34
67038;BME280;53940;53.204;6.590;2024-01-06T03:06:44;100486.03;;;21.86;35.23
67038;BME280;53940;53.204;6.590;2024-01-06T03:09:46;100482.34;;;21.87;35.47
67038;BME280;53940;53.204;6.590;2024-01-06T03:12:46;100492.25;;;21.87;35.44
67038;BME280;53940;53.204;6.590;2024-01-06T03:15:47;100503.78;;;21.87;35.53
67038;BME280;53940;53.204;6.590;2024-01-06T03:18:47;100507.47;;;21.86;35.14
67038;BME280;53940;53.204;6.590;2024-01-06T03:21:48;100504.94;;;21.85;35.55
67038;BME280;53940;53.204;6.590;2024-01-06T03:24:49;100513.84;;;21.85;35.22
67038;BME280;53940;53.204;6.590;2024-01-06T03:27:49;100509.50;;;21.84;35.21
67038;BME280;53940;53.204;6.590;2024-01-06T03:30:49;100520.22;;;21.84;35.04
67038;BME280;53940;53.204;6.590;2024-01-06T03:33:50;100513.84;;;21.85;35.18
67038;BME280;53940;53.204;6.590;2024-01-06T03:36:51;100516.53;;;21.85;35.26
67038;BME280;53940;53.204;6.590;2024-01-06T03:39:52;100521.03;;;21.85;35.34
67038;BME280;53940;53.204;6.590;2024-01-06T03:42:52;100519.22;;;21.85;34.98
67038;BME280;53940;53.204;6.590;2024-01-06T03:45:54;100516.53;;;21.85;34.98
67038;BME280;53940;53.204;6.590;2024-01-06T03:48:55;100519.22;;;21.85;35.15
67038;BME280;53940;53.204;6.590;2024-01-06T03:51:56;100520.22;;;21.84;34.81
67038;BME280;53940;53.204;6.590;2024-01-06T03:54:56;100525.59;;;21.84;34.77
67038;BME280;53940;53.204;6.590;2024-01-06T03:57:56;100524.72;;;21.84;34.92
67038;BME280;53940;53.204;6.590;2024-01-06T04:00:57;100541.69;;;21.84;34.84
67038;BME280;53940;53.204;6.590;2024-01-06T04:03:57;100541.69;;;21.84;34.65
67038;BME280;53940;53.204;6.590;2024-01-06T04:06:57;100547.03;;;21.84;35.01
67038;BME280;53940;53.204;6.590;2024-01-06T04:09:58;100546.03;;;21.85;34.86
67038;BME280;53940;53.204;6.590;2024-01-06T04:12:58;100545.03;;;21.86;34.93
67038;BME280;53940;53.204;6.590;2024-01-06T04:15:58;100545.03;;;21.86;34.89
67038;BME280;53940;53.204;6.590;2024-01-06T04:18:59;100550.41;;;21.86;34.77
67038;BME280;53940;53.204;6.590;2024-01-06T04:21:59;100562.81;;;21.87;35.02
67038;BME280;53940;53.204;6.590;2024-01-06T04:25:00;100568.03;;;21.89;35.16
67038;BME280;53940;53.204;6.590;2024-01-06T04:28:00;100583.28;;;21.88;35.10
67038;BME280;53940;53.204;6.590;2024-01-06T04:31:00;100588.63;;;21.88;35.09
67038;BME280;53940;53.204;6.590;2024-01-06T04:34:01;100591.31;;;21.88;34.83
67038;BME280;53940;53.204;6.590;2024-01-06T04:37:03;100585.97;;;21.88;34.99
67038;BME280;53940;53.204;6.590;2024-01-06T04:40:04;100589.50;;;21.89;34.77
67038;BME280;53940;53.204;6.590;2024-01-06T04:43:04;100590.34;;;21.89;34.96
67038;BME280;53940;53.204;6.590;2024-01-06T04:46:05;100587.66;;;21.89;35.06
67038;BME280;53940;53.204;6.590;2024-01-06T04:49:05;100592.19;;;21.89;34.74
67038;BME280;53940;53.204;6.590;2024-01-06T04:52:05;100593.03;;;21.89;34.81
67038;BME280;53940;53.204;6.590;2024-01-06T04:55:06;100599.38;;;21.88;34.84
67038;BME280;53940;53.204;6.590;2024-01-06T04:58:06;100605.75;;;21.87;34.70
67038;BME280;53940;53.204;6.590;2024-01-06T05:01:07;100610.09;;;21.88;34.61
67038;BME280;53940;53.204;6.590;2024-01-06T05:04:08;100607.59;;;21.87;34.63
67038;BME280;53940;53.204;6.590;2024-01-06T05:07:08;100634.25;;;21.88;34.89
67038;BME280;53940;53.204;6.590;2024-01-06T05:10:09;100634.25;;;21.88;34.81
67038;BME280;53940;53.204;6.590;2024-01-06T05:13:09;100635.97;;;21.89;34.61
67038;BME280;53940;53.204;6.590;2024-01-06T05:16:09;100635.97;;;21.89;34.71
67038;BME280;53940;53.204;6.590;2024-01-06T05:19:10;100635.97;;;21.89;34.84
67038;BME280;53940;53.204;6.590;2024-01-06T05:22:10;100638.63;;;21.89;34.60
67038;BME280;53940;53.204;6.590;2024-01-06T05:25:11;100643.00;;;21.90;34.76
67038;BME280;53940;53.204;6.590;2024-01-06T05:28:11;100647.38;;;21.91;34.79
67038;BME280;53940;53.204;6.590;2024-01-06T05:31:11;100653.75;;;21.90;34.42
67038;BME280;53940;53.204;6.590;2024-01-06T05:34:12;100656.25;;;21.92;34.38
67038;BME280;53940;53.204;6.590;2024-01-06T05:37:12;100658.09;;;21.91;34.49
67038;BME280;53940;53.204;6.590;2024-01-06T05:40:13;100668.84;;;21.91;34.52
67038;BME280;53940;53.204;6.590;2024-01-06T05:43:14;100673.19;;;21.92;34.22
67038;BME280;53940;53.204;6.590;2024-01-06T05:46:22;100678.56;;;21.92;34.28
67038;BME280;53940;53.204;6.590;2024-01-06T05:49:23;100685.63;;;21.93;34.21
67038;BME280;53940;53.204;6.590;2024-01-06T05:52:24;100690.97;;;21.93;34.59
67038;BME280;53940;53.204;6.590;2024-01-06T05:55:25;100698.03;;;21.94;34.44
67038;BME280;53940;53.204;6.590;2024-01-06T05:58:25;100705.25;;;21.94;34.68
67038;BME280;53940;53.204;6.590;2024-01-06T06:01:25;100711.44;;;21.94;34.59
67038;BME280;53940;53.204;6.590;2024-01-06T06:04:26;100714.13;;;21.94;34.34
67038;BME280;53940;53.204;6.590;2024-01-06T06:07:26;100721.22;;;21.96;34.59
67038;BME280;53940;53.204;6.590;2024-01-06T06:10:27;100715.84;;;21.96;34.50
67038;BME280;53940;53.204;6.590;2024-01-06T06:13:40;100725.72;;;21.95;34.33
67038;BME280;53940;53.204;6.590;2024-01-06T06:16:41;100727.53;;;21.94;34.47
67038;BME280;53940;53.204;6.590;2024-01-06T06:19:41;100741.81;;;21.95;34.51
67038;BME280;53940;53.204;6.590;2024-01-06T06:22:41;100746.31;;;21.94;34.13
67038;BME280;53940;53.204;6.590;2024-01-06T06:25:42;100749.00;;;21.94;34.46
67038;BME280;53940;53.204;6.590;2024-01-06T06:28:42;100755.09;;;21.97;34.23
67038;BME280;53940;53.204;6.590;2024-01-06T06:31:43;100757.06;;;21.94;34.23
67038;BME280;53940;53.204;6.590;2024-01-06T06:34:44;100767.78;;;21.94;34.39
67038;BME280;53940;53.204;6.590;2024-01-06T06:37:45;100771.47;;;21.93;34.42
67038;BME280;53940;53.204;6.590;2024-01-06T06:40:45;100783.06;;;21.94;34.46
67038;BME280;53940;53.204;6.590;2024-01-06T06:43:45;100780.38;;;21.94;34.57
67038;BME280;53940;53.204;6.590;2024-01-06T06:46:46;100789.25;;;21.94;34.53
67038;BME280;53940;53.204;6.590;2024-01-06T06:49:46;100790.09;;;21.95;34.30
67038;BME280;53940;53.204;6.590;2024-01-06T06:52:46;100793.66;;;21.96;34.51
67038;BME280;53940;53.204;6.590;2024-01-06T06:55:47;100805.34;;;21.94;34.54
67038;BME280;53940;53.204;6.590;2024-01-06T06:58:48;100805.34;;;21.94;34.32
67038;BME280;53940;53.204;6.590;2024-01-06T07:01:48;100813.41;;;21.94;34.69
67038;BME280;53940;53.204;6.590;2024-01-06T07:04:48;100825.13;;;21.93;34.40
67038;BME280;53940;53.204;6.590;2024-01-06T07:07:49;100824.13;;;21.94;34.80
67038;BME280;53940;53.204;6.590;2024-01-06T07:10:49;100831.34;;;21.94;34.69
67038;BME280;53940;53.204;6.590;2024-01-06T07:13:50;100834.19;;;21.92;34.56
67038;BME280;53940;53.204;6.590;2024-01-06T07:16:50;100841.22;;;21.93;34.47
67038;BME280;53940;53.204;6.590;2024-01-06T07:19:51;100841.22;;;21.93;34.53
67038;BME280;53940;53.204;6.590;2024-01-06T07:22:51;100849.41;;;21.92;34.66
67038;BME280;53940;53.204;6.590;2024-01-06T07:25:51;100859.19;;;21.93;34.78
67038;BME280;53940;53.204;6.590;2024-01-06T07:28:52;100855.63;;;21.92;34.44
67038;BME280;53940;53.204;6.590;2024-01-06T07:31:52;100862.84;;;21.92;34.55
67038;BME280;53940;53.204;6.590;2024-01-06T07:34:52;100864.69;;;21.91;34.68
67038;BME280;53940;53.204;6.590;2024-01-06T07:37:53;100870.88;;;21.92;34.72
67038;BME280;53940;53.204;6.590;2024-01-06T07:40:53;100868.38;;;21.90;34.69
67038;BME280;53940;53.204;6.590;2024-01-06T07:43:54;100879.94;;;21.91;34.60
67038;BME280;53940;53.204;6.590;2024-01-06T07:46:55;100874.56;;;21.91;34.96
67038;BME280;53940;53.204;6.590;2024-01-06T07:49:55;100877.41;;;21.89;34.96
67038;BME280;53940;53.204;6.590;2024-01-06T07:52:57;100879.09;;;21.90;34.70
67038;BME280;53940;53.204;6.590;2024-01-06T07:55:58;100891.78;;;21.88;34.75
67038;BME280;53940;53.204;6.590;2024-01-06T07:58:58;100902.53;;;21.88;34.95
67038;BME280;53940;53.204;6.590;2024-01-06T08:01:58;100897.16;;;21.88;35.16
67038;BME280;53940;53.204;6.590;2024-01-06T08:04:59;100899.16;;;21.86;35.25
67038;BME280;53940;53.204;6.590;2024-01-06T08:07:59;100901.97;;;21.85;35.26
67038;BME280;53940;53.204;6.590;2024-01-06T08:10:59;100911.88;;;21.84;35.28
67038;BME280;53940;53.204;6.590;2024-01-06T08:14:00;100905.66;;;21.84;35.45
67038;BME280;53940;53.204;6.590;2024-01-06T08:17:02;100916.25;;;21.85;35.32
67038;BME280;53940;53.204;6.590;2024-01-06T08:20:03;100917.25;;;21.84;35.39
67038;BME280;53940;53.204;6.590;2024-01-06T08:23:03;100918.06;;;21.85;35.56
67038;BME280;53940;53.204;6.590;2024-01-06T08:26:05;100929.66;;;21.85;35.33
67038;BME280;53940;53.204;6.590;2024-01-06T08:29:05;100937.03;;;21.83;35.75
67038;BME280;53940;53.204;6.590;2024-01-06T08:32:06;100946.19;;;21.80;35.88
67038;BME280;53940;53.204;6.590;2024-01-06T08:35:07;100951.69;;;21.79;35.54
67038;BME280;53940;53.204;6.590;2024-01-06T08:38:07;100952.69;;;21.78;35.78
67038;BME280;53940;53.204;6.590;2024-01-06T08:41:08;100959.06;;;21.77;35.59
67038;BME280;53940;53.204;6.590;2024-01-06T08:44:08;100964.44;;;21.77;36.08
67038;BME280;53940;53.204;6.590;2024-01-06T08:47:09;100970.75;;;21.76;36.05
67038;BME280;53940;53.204;6.590;2024-01-06T08:50:09;100971.75;;;21.75;35.88
67038;BME280;53940;53.204;6.590;2024-01-06T08:53:10;100979.94;;;21.73;36.02
67038;BME280;53940;53.204;6.590;2024-01-06T08:56:10;100983.34;;;21.75;35.84
67038;BME280;53940;53.204;6.590;2024-01-06T08:59:10;100992.38;;;21.74;35.93
67038;BME280;53940;53.204;6.590;2024-01-06T09:02:11;100991.53;;;21.74;35.74
67038;BME280;53940;53.204;6.590;2024-01-06T09:05:11;100990.53;;;21.75;36.01
67038;BME280;53940;53.204;6.590;2024-01-06T09:08:11;100989.84;;;21.73;35.85
67038;BME280;53940;53.204;6.590;2024-01-06T09:11:12;100996.88;;;21.74;36.12
67038;BME280;53940;53.204;6.590;2024-01-06T09:14:12;100998.88;;;21.72;35.95
67038;BME280;53940;53.204;6.590;2024-01-06T09:17:12;101004.38;;;21.70;36.21
67038;BME280;53940;53.204;6.590;2024-01-06T09:20:13;101009.00;;;21.68;35.98
67038;BME280;53940;53.204;6.590;2024-01-06T09:23:14;101014.50;;;21.66;36.31
67038;BME280;53940;53.204;6.590;2024-01-06T09:26:14;101012.81;;;21.65;36.04
67038;BME280;53940;53.204;6.590;2024-01-06T09:29:16;101019.19;;;21.64;36.06
67038;BME280;53940;53.204;6.590;2024-01-06T09:32:16;101017.47;;;21.63;36.32
67038;BME280;53940;53.204;6.590;2024-01-06T09:35:17;101019.44;;;21.61;36.05
67038;BME280;53940;53.204;6.590;2024-01-06T09:38:18;101027.63;;;21.60;36.26
67038;BME280;53940;53.204;6.590;2024-01-06T09:41:18;101032.16;;;21.59;36.14
67038;BME280;53940;53.204;6.590;2024-01-06T09:44:18;101043.88;;;21.58;36.04
67038;BME280;53940;53.204;6.590;2024-01-06T09:47:22;101048.25;;;21.59;36.13
67038;BME280;53940;53.204;6.590;2024-01-06T09:50:22;101042.88;;;21.59;36.15
67038;BME280;53940;53.204;6.590;2024-01-06T09:53:28;101054.31;;;21.61;36.12
67038;BME280;53940;53.204;6.590;2024-01-06T09:56:29;101057.69;;;21.63;36.34
67038;BME280;53940;53.204;6.590;2024-01-06T09:59:30;101055.88;;;21.64;36.27
67038;BME280;53940;53.204;6.590;2024-01-06T10:02:34;101074.50;;;21.65;36.39
67038;BME280;53940;53.204;6.590;2024-01-06T10:05:35;101063.78;;;21.65;35.97
67038;BME280;53940;53.204;6.590;2024-01-06T10:08:36;101074.50;;;21.65;36.27
67038;BME280;53940;53.204;6.590;2024-01-06T10:11:36;101078.03;;;21.66;36.27
67038;BME280;53940;53.204;6.590;2024-01-06T10:14:37;101084.25;;;21.66;36.14
67038;BME280;53940;53.204;6.590;2024-01-06T10:17:39;101082.56;;;21.65;36.33
67038;BME280;53940;53.204;6.590;2024-01-06T10:20:39;101085.25;;;21.65;36.07
67038;BME280;53940;53.204;6.590;2024-01-06T10:23:40;101081.69;;;21.65;36.32
67038;BME280;53940;53.204;6.590;2024-01-06T10:26:42;101084.38;;;21.65;36.14
67038;BME280;53940;53.204;6.590;2024-01-06T10:29:44;101080.88;;;21.64;36.20
67038;BME280;53940;53.204;6.590;2024-01-06T10:32:44;101085.38;;;21.64;36.40
67038;BME280;53940;53.204;6.590;2024-01-06T10:35:44;101094.28;;;21.64;36.53
67038;BME280;53940;53.204;6.590;2024-01-06T10:38:45;101087.19;;;21.63;36.43
67038;BME280;53940;53.204;6.590;2024-01-06T10:41:46;101088.19;;;21.62;36.30
67038;BME280;53940;53.204;6.590;2024-01-06T10:44:48;101085.50;;;21.62;36.36
67038;BME280;53940;53.204;6.590;2024-01-06T10:47:49;101088.19;;;21.62;36.62
67038;BME280;53940;53.204;6.590;2024-01-06T10:50:50;101091.84;;;21.61;36.63
67038;BME280;53940;53.204;6.590;2024-01-06T10:53:51;101100.75;;;21.62;36.28
67038;BME280;53940;53.204;6.590;2024-01-06T10:56:53;101100.75;;;21.62;36.36
67038;BME280;53940;53.204;6.590;2024-01-06T10:59:54;101099.03;;;21.61;36.43
67038;BME280;53940;53.204;6.590;2024-01-06T11:02:55;101096.53;;;21.59;36.52
67038;BME280;53940;53.204;6.590;2024-01-06T11:05:58;101103.56;;;21.60;36.30
67038;BME280;53940;53.204;6.590;2024-01-06T11:12:12;101101.88;;;21.59;36.28
67038;BME280;53940;53.204;6.590;2024-01-06T11:15:44;101110.94;;;21.58;36.59
67038;BME280;53940;53.204;6.590;2024-01-06T11:18:48;101101.16;;;21.57;36.58
67038;BME280;53940;53.204;6.590;2024-01-06T11:21:48;101112.75;;;21.58;36.54
67038;BME280;53940;53.204;6.590;2024-01-06T11:24:50;101112.75;;;21.58;36.67
67038;BME280;53940;53.204;6.590;2024-01-06T11:27:51;101114.56;;;21.57;36.38
67038;BME280;53940;53.204;6.590;2024-01-06T11:31:09;101111.19;;;21.55;36.96
67038;BME280;53940;53.204;6.590;2024-01-06T11:34:16;101111.47;;;21.52;36.69
67038;BME280;53940;53.204;6.590;2024-01-06T11:37:17;101112.44;;;21.51;36.70
67038;BME280;53940;53.204;6.590;2024-01-06T11:43:26;101115.41;;;21.48;36.46
67038;BME280;53940;53.204;6.590;2024-01-06T11:46:28;101122.75;;;21.46;36.41
67038;BME280;53940;53.204;6.590;2024-01-06T11:49:29;101122.75;;;21.46;36.97
67038;BME280;53940;53.204;6.590;2024-01-06T11:52:33;101127.25;;;21.45;37.37
67038;BME280;53940;53.204;6.590;2024-01-06T11:55:34;101121.75;;;21.47;37.09
67038;BME280;53940;53.204;6.590;2024-01-06T11:58:34;101125.28;;;21.47;37.65
67038;BME280;53940;53.204;6.590;2024-01-06T12:01:38;101123.47;;;21.48;37.94
67038;BME280;53940;53.204;6.590;2024-01-06T12:04:40;101125.16;;;21.49;38.03
67038;BME280;53940;53.204;6.590;2024-01-06T12:07:52;101136.56;;;21.51;38.40
67038;BME280;53940;53.204;6.590;2024-01-06T12:11:02;101125.16;;;21.49;38.72
67038;BME280;53940;53.204;6.590;2024-01-06T12:14:03;101129.53;;;21.50;38.44
67038;BME280;53940;53.204;6.590;2024-01-06T12:17:04;101132.19;;;21.50;38.64
67038;BME280;53940;53.204;6.590;2024-01-06T12:20:04;101125.16;;;21.49;38.38
67038;BME280;53940;53.204;6.590;2024-01-06T12:23:05;101131.50;;;21.48;38.65
67038;BME280;53940;53.204;6.590;2024-01-06T12:26:05;101130.63;;;21.47;38.56
67038;BME280;53940;53.204;6.590;2024-01-06T12:29:06;101135.19;;;21.47;38.84
67038;BME280;53940;53.204;6.590;2024-01-06T12:32:07;101139.69;;;21.46;38.81
67038;BME280;53940;53.204;6.590;2024-01-06T12:35:09;101151.25;;;21.47;38.80
67038;BME280;53940;53.204;6.590;2024-01-06T12:38:09;101137.97;;;21.45;38.42
67038;BME280;53940;53.204;6.590;2024-01-06T12:41:10;101147.84;;;21.45;38.09
67038;BME280;53940;53.204;6.590;2024-01-06T12:44:10;101147.84;;;21.45;38.32
67038;BME280;53940;53.204;6.590;2024-01-06T12:47:11;101153.38;;;21.43;38.19
67038;BME280;53940;53.204;6.590;2024-01-06T12:50:12;101161.53;;;21.41;38.54
67038;BME280;53940;53.204;6.590;2024-01-06T12:53:13;101165.91;;;21.43;38.14
67038;BME280;53940;53.204;6.590;2024-01-06T12:56:15;101162.25;;;21.44;38.13
67038;BME280;53940;53.204;6.590;2024-01-06T12:59:15;101167.59;;;21.44;38.37
67038;BME280;53940;53.204;6.590;2024-01-06T13:02:15;101169.59;;;21.41;38.03
67038;BME280;53940;53.204;6.590;2024-01-06T13:05:16;101166.22;;;21.39;38.45
67038;BME280;53940;53.204;6.590;2024-01-06T13:08:16;101172.41;;;21.40;37.98
67038;BME280;53940;53.204;6.590;2024-01-06T13:11:17;101173.50;;;21.37;38.14
67038;BME280;53940;53.204;6.590;2024-01-06T13:14:18;101171.81;;;21.36;38.37
67038;BME280;53940;53.204;6.590;2024-01-06T13:17:18;101180.84;;;21.35;38.25
67038;BME280;53940;53.204;6.590;2024-01-06T13:20:19;101178.31;;;21.34;38.21
67038;BME280;53940;53.204;6.590;2024-01-06T13:23:19;101186.47;;;21.32;38.14
67038;BME280;53940;53.204;6.590;2024-01-06T13:26:20;101186.47;;;21.32;38.03
67038;BME280;53940;53.204;6.590;2024-01-06T13:29:20;101192.81;;;21.31;38.03
67038;BME280;53940;53.204;6.590;2024-01-06T13:32:20;101196.38;;;21.32;38.21
67038;BME280;53940;53.204;6.590;2024-01-06T13:35:22;101202.56;;;21.32;38.07
67038;BME280;53940;53.204;6.590;2024-01-06T13:38:26;101206.22;;;21.31;38.19
67038;BME280;53940;53.204;6.590;2024-01-06T13:41:26;101203.41;;;21.33;37.87
67038;BME280;53940;53.204;6.590;2024-01-06T13:44:27;101208.66;;;21.34;38.15
67038;BME280;53940;53.204;6.590;2024-01-06T13:47:27;101207.66;;;21.35;37.83
67038;BME280;53940;53.204;6.590;2024-01-06T13:50:27;101214.72;;;21.36;37.96
67038;BME280;53940;53.204;6.590;2024-01-06T13:53:28;101221.78;;;21.37;38.02
67038;BME280;53940;53.204;6.590;2024-01-06T13:56:28;101218.97;;;21.39;37.87
67038;BME280;53940;53.204;6.590;2024-01-06T13:59:29;101219.81;;;21.39;37.57
67038;BME280;53940;53.204;6.590;2024-01-06T14:02:29;101228.56;;;21.41;37.47
67038;BME280;53940;53.204;6.590;2024-01-06T14:05:30;101232.81;;;21.44;37.50
67038;BME280;53940;53.204;6.590;2024-01-06T14:08:30;101232.81;;;21.44;37.41
67038;BME280;53940;53.204;6.590;2024-01-06T14:11:31;101242.44;;;21.47;37.61
67038;BME280;53940;53.204;6.590;2024-01-06T14:14:31;101252.16;;;21.48;37.58
67038;BME280;53940;53.204;6.590;2024-01-06T14:17:32;101250.31;;;21.48;37.65
67038;BME280;53940;53.204;6.590;2024-01-06T14:20:33;101259.91;;;21.51;37.31
67038;BME280;53940;53.204;6.590;2024-01-06T14:23:38;101265.28;;;21.51;37.59
67038;BME280;53940;53.204;6.590;2024-01-06T14:26:38;101275.06;;;21.52;37.35
67038;BME280;53940;53.204;6.590;2024-01-06T14:29:40;101283.69;;;21.56;37.15
67038;BME280;53940;53.204;6.590;2024-01-06T14:32:40;101281.81;;;21.56;37.09
67038;BME280;53940;53.204;6.590;2024-01-06T14:35:41;101285.38;;;21.57;37.43
67038;BME280;53940;53.204;6.590;2024-01-06T14:38:42;101287.06;;;21.58;37.35
67038;BME280;53940;53.204;6.590;2024-01-06T14:41:43;101294.13;;;21.59;37.19
67038;BME280;53940;53.204;6.590;2024-01-06T14:44:43;101290.59;;;21.58;37.03
67038;BME280;53940;53.204;6.590;2024-01-06T14:47:44;101290.59;;;21.58;37.38
67038;BME280;53940;53.204;6.590;2024-01-06T14:50:44;101297.66;;;21.59;37.13
67038;BME280;53940;53.204;6.590;2024-01-06T14:53:44;101296.69;;;21.60;37.37
67038;BME280;53940;53.204;6.590;2024-01-06T14:56:45;101310.22;;;21.59;37.25
67038;BME280;53940;53.204;6.590;2024-01-06T14:59:46;101317.13;;;21.61;37.19
67038;BME280;53940;53.204;6.590;2024-01-06T15:02:47;101312.06;;;21.58;37.03
67038;BME280;53940;53.204;6.590;2024-01-06T15:05:47;101322.06;;;21.56;37.11
67038;BME280;53940;53.204;6.590;2024-01-06T15:08:47;101331.09;;;21.55;37.20
67038;BME280;53940;53.204;6.590;2024-01-06T15:11:48;101338.16;;;21.56;37.11
67038;BME280;53940;53.204;6.590;2024-01-06T15:14:49;101334.47;;;21.57;36.94
67038;BME280;53940;53.204;6.590;2024-01-06T15:17:49;101335.34;;;21.58;37.33
67038;BME280;53940;53.204;6.590;2024-01-06T15:20:49;101344.25;;;21.58;37.01
67038;BME280;53940;53.204;6.590;2024-01-06T15:23:50;101353.13;;;21.59;37.36
67038;BME280;53940;53.204;6.590;2024-01-06T15:26:50;101354.81;;;21.60;37.31
67038;BME280;53940;53.204;6.590;2024-01-06T15:29:51;101358.34;;;21.60;37.11
67038;BME280;53940;53.204;6.590;2024-01-06T15:32:51;101365.53;;;21.60;37.06
67038;BME280;53940;53.204;6.590;2024-01-06T15:35:52;101365.41;;;21.61;37.06
67038;BME280;53940;53.204;6.590;2024-01-06T15:38:53;101372.75;;;21.59;37.43
67038;BME280;53940;53.204;6.590;2024-01-06T15:41:53;101383.34;;;21.61;37.42
67038;BME280;53940;53.204;6.590;2024-01-06T15:44:54;101394.06;;;21.61;37.30
67038;BME280;53940;53.204;6.590;2024-01-06T15:47:55;101398.47;;;21.62;37.23
67038;BME280;53940;53.204;6.590;2024-01-06T15:50:55;101398.59;;;21.60;37.28